createdAt,value
2023-05-14T00:01:31.251Z,13.60
2023-05-14T00:04:03.254Z,13.60
2023-05-14T00:06:37.095Z,13.60
2023-05-14T00:09:08.911Z,13.50
2023-05-14T00:11:40.743Z,13.50
2023-05-14T00:14:18.144Z,13.50
2023-05-14T00:16:50.006Z,13.50
2023-05-14T00:19:21.838Z,13.50
2023-05-14T00:21:55.160Z,13.50
2023-05-14T00:24:27.048Z,13.30
2023-05-14T00:26:58.858Z,13.40
2023-05-14T00:29:30.861Z,13.30
2023-05-14T00:32:04.342Z,13.30
2023-05-14T00:34:36.544Z,13.30
2023-05-14T00:37:09.866Z,13.10
2023-05-14T00:39:41.732Z,13.10
2023-05-14T00:42:13.704Z,13.10
2023-05-14T00:44:45.499Z,13.00
2023-05-14T00:47:17.711Z,13.00
2023-05-14T00:49:50.572Z,13.10
2023-05-14T00:52:25.406Z,13.10
2023-05-14T00:54:57.849Z,13.00
2023-05-14T00:57:29.718Z,13.00
2023-05-14T01:00:02.930Z,12.90
2023-05-14T01:02:34.689Z,12.90
2023-05-14T01:05:08.443Z,12.90
2023-05-14T01:07:50.527Z,12.80
2023-05-14T01:10:33.561Z,12.80
2023-05-14T01:13:14.064Z,12.70
2023-05-14T01:15:48.541Z,12.70
2023-05-14T01:18:25.015Z,12.70
2023-05-14T01:20:57.438Z,12.70
2023-05-14T01:23:30.613Z,12.70
2023-05-14T01:26:02.457Z,12.60
2023-05-14T01:28:39.623Z,12.60
2023-05-14T01:31:19.748Z,12.60
2023-05-14T01:33:55.576Z,12.50
2023-05-14T01:36:28.499Z,12.50
2023-05-14T01:39:03.622Z,12.40
2023-05-14T01:41:36.512Z,12.40
2023-05-14T01:44:09.006Z,12.40
2023-05-14T01:46:40.706Z,12.30
2023-05-14T01:49:12.502Z,12.30
2023-05-14T01:51:44.586Z,12.20
2023-05-14T01:54:17.516Z,12.20
2023-05-14T01:56:49.342Z,12.10
2023-05-14T01:59:21.185Z,12.10
2023-05-14T02:01:53.164Z,12.10
2023-05-14T02:04:24.845Z,12.20
2023-05-14T02:06:56.481Z,12.10
2023-05-14T02:09:30.630Z,12.00
2023-05-14T02:12:02.553Z,12.00
2023-05-14T02:14:34.480Z,11.90
2023-05-14T02:17:06.363Z,12.00
2023-05-14T02:19:38.277Z,11.90
2023-05-14T02:22:11.077Z,11.90
2023-05-14T02:24:44.217Z,11.90
2023-05-14T02:27:16.036Z,12.10
2023-05-14T02:29:47.981Z,12.00
2023-05-14T02:32:19.821Z,11.90
2023-05-14T02:34:51.593Z,11.90
2023-05-14T02:37:23.420Z,11.80
2023-05-14T02:39:56.705Z,11.90
2023-05-14T02:42:28.512Z,11.70
2023-05-14T02:45:00.423Z,11.60
2023-05-14T02:47:32.333Z,11.50
2023-05-14T02:50:06.344Z,11.50
2023-05-14T02:52:37.899Z,11.50
2023-05-14T02:55:13.308Z,11.40
2023-05-14T02:57:45.126Z,11.50
2023-05-14T03:00:17.515Z,11.40
2023-05-14T03:02:50.030Z,11.30
2023-05-14T03:05:22.329Z,11.40
2023-05-14T03:07:54.249Z,11.30
2023-05-14T03:10:27.961Z,11.40
2023-05-14T03:12:59.900Z,11.30
2023-05-14T03:15:31.700Z,11.30
2023-05-14T03:18:03.617Z,11.30
2023-05-14T03:20:35.306Z,11.40
2023-05-14T03:23:07.190Z,11.30
2023-05-14T03:25:40.154Z,11.30
2023-05-14T03:28:11.975Z,11.20
2023-05-14T03:30:43.933Z,11.20
2023-05-14T03:33:15.729Z,11.20
2023-05-14T03:35:47.616Z,11.10
2023-05-14T03:38:19.411Z,11.10
2023-05-14T03:40:52.478Z,11.10
2023-05-14T03:43:24.284Z,11.00
2023-05-14T03:45:56.088Z,11.00
2023-05-14T03:48:28.114Z,11.00
2023-05-14T03:50:59.864Z,11.00
2023-05-14T03:53:31.723Z,11.00
2023-05-14T03:56:04.737Z,11.00
2023-05-14T03:58:36.556Z,10.90
2023-05-14T04:01:08.397Z,11.00
2023-05-14T04:03:40.329Z,11.10
2023-05-14T04:06:12.186Z,11.20
2023-05-14T04:08:44.140Z,11.30
2023-05-14T04:11:17.415Z,11.30
2023-05-14T04:13:49.208Z,11.10
2023-05-14T04:16:21.071Z,11.30
2023-05-14T04:18:53.077Z,11.20
2023-05-14T04:21:24.788Z,11.10
2023-05-14T04:23:56.729Z,11.30
2023-05-14T04:26:30.210Z,11.30
2023-05-14T04:29:03.476Z,11.20
2023-05-14T04:31:35.598Z,11.10
2023-05-14T04:34:07.401Z,11.10
2023-05-14T04:36:39.370Z,11.20
2023-05-14T04:39:12.529Z,11.30
2023-05-14T04:41:45.997Z,11.20
2023-05-14T04:44:18.285Z,11.10
2023-05-14T04:46:50.390Z,11.10
2023-05-14T04:49:23.331Z,11.20
2023-05-14T04:51:56.262Z,11.20
2023-05-14T04:54:28.328Z,11.20
2023-05-14T04:57:03.275Z,11.30
2023-05-14T04:59:35.525Z,11.30
2023-05-14T05:02:07.452Z,11.30
2023-05-14T05:04:39.613Z,11.30
2023-05-14T05:07:11.373Z,11.40
2023-05-14T05:09:43.691Z,11.40
2023-05-14T05:12:16.855Z,11.40
2023-05-14T05:14:48.666Z,11.40
2023-05-14T05:17:20.741Z,11.40
2023-05-14T05:19:52.569Z,11.50
2023-05-14T05:22:24.517Z,11.60
2023-05-14T05:24:56.322Z,11.60
2023-05-14T05:27:29.525Z,11.60
2023-05-14T05:30:02.108Z,11.70
2023-05-14T05:32:33.862Z,11.70
2023-05-14T05:35:06.543Z,11.70
2023-05-14T05:37:38.882Z,11.80
2023-05-14T05:40:14.016Z,11.80
2023-05-14T05:42:47.759Z,11.90
2023-05-14T05:45:19.786Z,11.90
2023-05-14T05:47:51.683Z,11.90
2023-05-14T05:50:23.813Z,12.00
2023-05-14T05:52:55.627Z,12.10
2023-05-14T05:55:27.331Z,12.10
2023-05-14T05:58:00.270Z,12.20
2023-05-14T06:00:32.163Z,12.20
2023-05-14T06:03:04.202Z,12.30
2023-05-14T06:05:35.895Z,12.40
2023-05-14T06:08:07.781Z,12.50
2023-05-14T06:10:39.620Z,12.50
2023-05-14T06:13:12.959Z,12.60
2023-05-14T06:15:44.814Z,12.70
2023-05-14T06:18:16.738Z,12.70
2023-05-14T06:20:48.535Z,12.80
2023-05-14T06:23:20.522Z,12.90
2023-05-14T06:25:52.357Z,12.90
2023-05-14T06:28:25.336Z,13.00
2023-05-14T06:30:57.193Z,13.10
2023-05-14T06:33:31.313Z,13.10
2023-05-14T06:36:07.869Z,13.20
2023-05-14T06:38:42.183Z,13.30
2023-05-14T06:41:13.737Z,13.30
2023-05-14T06:43:46.925Z,13.40
2023-05-14T06:46:18.776Z,13.50
2023-05-14T06:48:50.663Z,13.60
2023-05-14T06:51:22.451Z,13.70
2023-05-14T06:53:54.288Z,13.70
2023-05-14T06:56:26.389Z,13.80
2023-05-14T06:59:00.202Z,13.90
2023-05-14T07:01:32.044Z,14.00
2023-05-14T07:04:03.954Z,14.00
2023-05-14T07:06:36.121Z,14.10
2023-05-14T07:09:07.963Z,14.10
2023-05-14T07:11:39.864Z,14.20
2023-05-14T07:14:12.857Z,14.20
2023-05-14T07:16:46.786Z,14.30
2023-05-14T07:19:18.584Z,14.40
2023-05-14T07:21:50.969Z,14.50
2023-05-14T07:24:23.528Z,14.70
2023-05-14T07:26:57.156Z,14.80
2023-05-14T07:29:31.167Z,15.00
2023-05-14T07:32:04.752Z,15.00
2023-05-14T07:34:36.575Z,15.10
2023-05-14T07:37:08.354Z,15.10
2023-05-14T07:39:41.645Z,15.20
2023-05-14T07:42:21.960Z,15.30
2023-05-14T07:44:58.238Z,15.30
2023-05-14T07:47:30.518Z,15.30
2023-05-14T07:50:02.642Z,15.40
2023-05-14T07:52:34.483Z,15.60
2023-05-14T07:55:06.829Z,15.80
2023-05-14T07:57:38.675Z,15.70
2023-05-14T08:00:15.917Z,15.80
2023-05-14T08:02:49.081Z,16.00
2023-05-14T08:05:21.141Z,16.00
2023-05-14T08:07:53.001Z,16.00
2023-05-14T08:10:25.091Z,16.20
2023-05-14T08:12:57.137Z,16.30
2023-05-14T08:15:30.223Z,16.40
2023-05-14T08:18:03.706Z,16.40
2023-05-14T08:20:35.672Z,16.50
2023-05-14T08:23:09.239Z,16.70
2023-05-14T08:25:40.858Z,16.60
2023-05-14T08:28:12.747Z,16.70
2023-05-14T08:30:46.025Z,16.80
2023-05-14T08:33:18.069Z,16.90
2023-05-14T08:35:51.135Z,17.00
2023-05-14T08:38:24.623Z,17.10
2023-05-14T08:41:01.476Z,17.20
2023-05-14T08:43:55.730Z,17.30
2023-05-14T08:46:34.007Z,17.30
2023-05-14T08:49:16.942Z,17.50
2023-05-14T08:51:51.525Z,17.50
2023-05-14T08:54:26.200Z,17.60
2023-05-14T08:56:59.913Z,17.70
2023-05-14T08:59:33.983Z,17.90
2023-05-14T09:02:11.140Z,17.90
2023-05-14T09:04:43.439Z,18.10
2023-05-14T09:07:15.944Z,18.10
2023-05-14T09:09:48.360Z,18.20
2023-05-14T09:12:20.069Z,18.20
2023-05-14T09:14:53.933Z,18.30
2023-05-14T09:17:28.569Z,18.40
2023-05-14T09:20:02.297Z,18.50
2023-05-14T09:22:35.910Z,18.60
2023-05-14T09:25:12.002Z,18.70
2023-05-14T09:27:50.052Z,18.80
2023-05-14T09:30:21.964Z,18.90
2023-05-14T09:32:57.092Z,19.00
2023-05-14T09:35:29.924Z,19.10
2023-05-14T09:38:01.766Z,19.10
2023-05-14T09:40:33.625Z,19.20
2023-05-14T09:43:06.108Z,19.30
2023-05-14T09:45:37.900Z,19.40
2023-05-14T09:48:11.364Z,19.50
2023-05-14T09:50:47.548Z,19.60
2023-05-14T09:53:22.138Z,19.60
2023-05-14T09:55:53.722Z,19.70
2023-05-14T09:58:27.155Z,19.80
2023-05-14T10:01:02.572Z,19.90
2023-05-14T10:03:36.241Z,20.00
2023-05-14T10:06:10.840Z,20.10
2023-05-14T10:08:49.749Z,20.00
2023-05-14T10:11:31.502Z,20.10
2023-05-14T10:14:17.912Z,20.20
2023-05-14T10:16:54.526Z,20.40
2023-05-14T10:19:32.111Z,20.50
2023-05-14T10:22:12.382Z,20.60
2023-05-14T10:24:45.894Z,20.50
2023-05-14T10:27:19.711Z,20.60
2023-05-14T10:29:57.211Z,20.70
2023-05-14T10:32:33.087Z,20.80
2023-05-14T10:35:16.714Z,20.80
2023-05-14T10:37:51.728Z,20.90
2023-05-14T10:40:26.512Z,21.10
2023-05-14T10:43:03.577Z,21.20
2023-05-14T10:45:35.547Z,21.30
2023-05-14T10:48:07.509Z,21.30
2023-05-14T10:50:42.957Z,21.40
2023-05-14T10:53:18.682Z,21.60
2023-05-14T10:55:55.562Z,21.70
2023-05-14T10:58:28.384Z,21.80
2023-05-14T11:01:00.921Z,21.80
2023-05-14T11:03:40.084Z,21.80
2023-05-14T11:06:15.889Z,21.90
2023-05-14T11:08:47.935Z,21.80
2023-05-14T11:11:20.619Z,21.90
2023-05-14T11:13:54.443Z,22.00
2023-05-14T11:16:30.800Z,22.20
2023-05-14T11:19:08.220Z,22.40
2023-05-14T11:21:42.036Z,22.50
2023-05-14T11:24:13.751Z,22.50
2023-05-14T11:26:48.749Z,22.50
2023-05-14T11:29:20.687Z,22.40
2023-05-14T11:31:54.077Z,22.50
2023-05-14T11:34:25.758Z,22.70
2023-05-14T11:36:58.998Z,22.20
2023-05-14T11:39:31.864Z,22.40
2023-05-14T11:42:05.831Z,22.50
2023-05-14T11:44:39.920Z,22.70
2023-05-14T11:47:12.226Z,22.80
2023-05-14T11:49:43.828Z,23.00
2023-05-14T11:52:21.773Z,23.10
2023-05-14T11:54:53.859Z,23.10
2023-05-14T11:57:26.332Z,23.20
2023-05-14T12:00:00.510Z,23.30
2023-05-14T12:02:32.668Z,23.40
2023-05-14T12:05:07.105Z,23.50
2023-05-14T12:07:40.200Z,23.60
2023-05-14T12:10:17.525Z,23.70
2023-05-14T12:12:52.512Z,23.70
2023-05-14T12:15:26.705Z,23.70
2023-05-14T12:17:58.278Z,23.80
2023-05-14T12:20:33.014Z,23.70
2023-05-14T12:23:06.045Z,24.00
2023-05-14T12:25:39.271Z,24.00
2023-05-14T12:28:20.453Z,24.10
2023-05-14T12:30:59.192Z,24.10
2023-05-14T12:33:31.724Z,24.10
2023-05-14T12:38:41.173Z,24.30
2023-05-14T12:41:13.171Z,24.30
2023-05-14T12:43:49.131Z,24.30
2023-05-14T12:46:20.878Z,24.40
2023-05-14T12:48:53.470Z,24.40
2023-05-14T12:51:25.196Z,24.60
2023-05-14T12:53:58.204Z,24.70
2023-05-14T12:56:32.012Z,24.80
2023-05-14T12:59:03.632Z,24.90
2023-05-14T13:01:35.543Z,24.50
2023-05-14T13:04:07.987Z,24.70
2023-05-14T13:06:39.725Z,24.80
2023-05-14T13:09:13.037Z,25.10
2023-05-14T13:11:44.680Z,25.10
2023-05-14T13:14:17.838Z,25.10
2023-05-14T13:16:52.609Z,24.90
2023-05-14T13:19:26.606Z,25.00
2023-05-14T13:21:59.823Z,25.00
2023-05-14T13:24:32.985Z,25.00
2023-05-14T13:27:04.859Z,24.90
2023-05-14T13:29:37.257Z,25.30
2023-05-14T13:32:12.462Z,25.00
2023-05-14T13:34:44.968Z,24.70
2023-05-14T13:37:16.664Z,24.50
2023-05-14T13:39:51.400Z,24.40
2023-05-14T13:42:23.626Z,24.10
2023-05-14T13:44:56.313Z,24.00
2023-05-14T13:47:29.177Z,23.90
2023-05-14T13:50:01.809Z,23.50
2023-05-14T13:52:35.166Z,23.60
2023-05-14T13:55:10.398Z,23.60
2023-05-14T13:57:43.092Z,23.30
2023-05-14T14:00:17.245Z,23.20
2023-05-14T14:02:50.581Z,23.10
2023-05-14T14:05:23.759Z,23.00
2023-05-14T14:08:00.975Z,22.70
2023-05-14T14:10:42.441Z,22.70
2023-05-14T14:13:14.470Z,22.70
2023-05-14T14:15:46.413Z,22.70
2023-05-14T14:18:19.744Z,22.60
2023-05-14T14:20:52.976Z,22.50
2023-05-14T14:23:26.229Z,22.70
2023-05-14T14:25:59.421Z,22.30
2023-05-14T14:28:31.456Z,22.00
2023-05-14T14:31:03.282Z,22.10
2023-05-14T14:33:35.131Z,22.20
2023-05-14T14:36:08.051Z,22.20
2023-05-14T14:38:40.051Z,22.30
2023-05-14T14:41:13.187Z,22.20
2023-05-14T14:43:45.354Z,22.20
2023-05-14T14:46:17.264Z,22.20
2023-05-14T14:48:49.249Z,22.30
2023-05-14T14:51:21.086Z,22.10
2023-05-14T14:53:54.351Z,22.00
2023-05-14T14:56:27.802Z,22.00
2023-05-14T14:58:59.644Z,22.00
2023-05-14T15:01:31.680Z,22.00
2023-05-14T15:04:03.693Z,22.00
2023-05-14T15:06:35.310Z,22.00
2023-05-14T15:09:09.103Z,22.00
2023-05-14T15:11:43.945Z,22.10
2023-05-14T15:14:15.765Z,22.10
2023-05-14T15:16:49.578Z,22.00
2023-05-14T15:19:22.539Z,22.10
2023-05-14T15:21:55.006Z,22.00
2023-05-14T15:24:27.192Z,22.00
2023-05-14T15:27:00.873Z,21.90
2023-05-14T15:29:32.962Z,21.80
2023-05-14T15:32:07.259Z,21.70
2023-05-14T15:34:39.211Z,21.60
2023-05-14T15:37:10.894Z,21.60
2023-05-14T15:39:44.374Z,21.50
2023-05-14T15:42:17.711Z,21.50
2023-05-14T15:44:49.622Z,21.40
2023-05-14T15:47:21.464Z,21.40
2023-05-14T15:49:53.314Z,21.40
2023-05-14T15:52:25.217Z,21.50
2023-05-14T15:54:58.574Z,21.40
2023-05-14T15:57:31.684Z,21.50
2023-05-14T16:00:10.660Z,21.40
2023-05-14T16:02:44.581Z,21.30
2023-05-14T16:05:18.985Z,21.20
2023-05-14T16:07:52.827Z,21.30
2023-05-14T16:10:26.556Z,21.30
2023-05-14T16:12:59.743Z,21.20
2023-05-14T16:15:31.674Z,21.30
2023-05-14T16:18:03.529Z,21.20
2023-05-14T16:20:35.346Z,21.20
2023-05-14T16:23:08.665Z,21.30
2023-05-14T16:25:40.660Z,21.40
2023-05-14T16:28:14.028Z,21.30
2023-05-14T16:30:45.902Z,21.30
2023-05-14T16:33:17.743Z,21.30
2023-05-14T16:35:50.528Z,21.30
2023-05-14T16:38:22.388Z,21.30
2023-05-14T16:40:54.253Z,21.20
2023-05-14T16:43:27.293Z,21.10
2023-05-14T16:45:59.302Z,21.10
2023-05-14T16:48:31.316Z,21.10
2023-05-14T16:51:02.910Z,21.10
2023-05-14T16:53:34.804Z,21.10
2023-05-14T16:56:06.728Z,21.10
2023-05-14T16:58:41.389Z,21.10
2023-05-14T17:01:13.073Z,21.20
2023-05-14T17:03:45.651Z,21.10
2023-05-14T17:06:17.783Z,21.20
2023-05-14T17:08:49.660Z,21.10
2023-05-14T17:11:21.647Z,21.10
2023-05-14T17:13:54.592Z,21.10
2023-05-14T17:16:27.099Z,21.10
2023-05-14T17:18:59.017Z,21.10
2023-05-14T17:21:30.929Z,21.10
2023-05-14T17:24:03.753Z,21.20
2023-05-14T17:26:35.691Z,21.30
2023-05-14T17:29:08.908Z,21.30
2023-05-14T17:31:40.768Z,21.30
2023-05-14T17:34:12.650Z,21.40
2023-05-14T17:36:44.565Z,21.40
2023-05-14T17:39:16.452Z,21.50
2023-05-14T17:41:48.329Z,21.40
2023-05-14T17:44:21.590Z,21.40
2023-05-14T17:46:53.528Z,21.30
2023-05-14T17:49:25.411Z,21.20
2023-05-14T17:51:57.303Z,21.10
2023-05-14T17:54:29.120Z,21.10
2023-05-14T17:57:00.991Z,21.00
2023-05-14T17:59:34.261Z,21.00
2023-05-14T18:02:07.517Z,21.00
2023-05-14T18:04:39.252Z,20.80
2023-05-14T18:07:11.038Z,20.70
2023-05-14T18:09:42.869Z,20.70
2023-05-14T18:12:14.741Z,20.70
2023-05-14T18:14:47.825Z,20.60
2023-05-14T18:17:19.659Z,20.60
2023-05-14T18:19:51.494Z,20.50
2023-05-14T18:22:23.362Z,20.40
2023-05-14T18:24:55.298Z,20.30
2023-05-14T18:27:27.189Z,20.30
2023-05-14T18:30:00.514Z,20.20
2023-05-14T18:32:32.377Z,20.10
2023-05-14T18:35:06.476Z,20.10
2023-05-14T18:37:40.085Z,19.90
2023-05-14T18:40:15.752Z,19.90
2023-05-14T18:42:49.328Z,19.90
2023-05-14T18:45:24.127Z,19.80
2023-05-14T18:47:56.051Z,19.70
2023-05-14T18:50:28.047Z,19.70
2023-05-14T18:52:59.869Z,19.60
2023-05-14T18:55:31.708Z,19.50
2023-05-14T18:58:03.685Z,19.50
2023-05-14T19:00:37.027Z,19.40
2023-05-14T19:03:08.806Z,19.30
2023-05-14T19:05:40.580Z,19.20
2023-05-14T19:08:12.863Z,19.20
2023-05-14T19:10:44.777Z,19.00
2023-05-14T19:13:16.904Z,19.00
2023-05-14T19:15:50.162Z,18.90
2023-05-14T19:18:23.756Z,18.70
2023-05-14T19:20:57.185Z,18.60
2023-05-14T19:23:32.597Z,18.50
2023-05-14T19:26:06.835Z,18.40
2023-05-14T19:28:40.828Z,18.40
2023-05-14T19:31:13.888Z,18.30
2023-05-14T19:33:47.166Z,18.40
2023-05-14T19:36:20.580Z,18.30
2023-05-14T19:38:53.946Z,18.20
2023-05-14T19:41:27.744Z,18.00
2023-05-14T19:44:00.959Z,17.90
2023-05-14T19:46:33.954Z,17.80
2023-05-14T19:49:07.271Z,17.90
2023-05-14T19:51:40.674Z,17.70
2023-05-14T19:54:14.620Z,17.50
2023-05-14T19:56:47.919Z,17.50
2023-05-14T19:59:21.180Z,17.60
2023-05-14T20:01:54.487Z,17.40
2023-05-14T20:04:28.152Z,17.30
2023-05-14T20:07:01.829Z,17.30
2023-05-14T20:09:35.086Z,17.30
2023-05-14T20:12:10.766Z,17.20
2023-05-14T20:14:44.763Z,17.20
2023-05-14T20:17:17.920Z,17.00
2023-05-14T20:19:52.195Z,17.00
2023-05-14T20:22:25.975Z,16.90
2023-05-14T20:24:59.578Z,17.10
2023-05-14T20:27:33.065Z,16.90
2023-05-14T20:30:07.773Z,16.80
2023-05-14T20:32:41.008Z,16.70
2023-05-14T20:35:15.312Z,16.70
2023-05-14T20:37:49.466Z,16.70
2023-05-14T20:40:23.143Z,16.60
2023-05-14T20:42:56.688Z,16.70
2023-05-14T20:45:29.947Z,16.70
2023-05-14T20:48:06.035Z,16.70
2023-05-14T20:50:39.572Z,16.70
2023-05-14T20:53:12.919Z,16.50
2023-05-14T20:55:46.278Z,16.60
2023-05-14T20:58:20.391Z,16.50
2023-05-14T21:00:53.921Z,16.50
2023-05-14T21:03:27.133Z,16.40
2023-05-14T21:06:00.560Z,16.40
2023-05-14T21:08:34.965Z,16.30
2023-05-14T21:11:08.489Z,16.30
2023-05-14T21:13:43.801Z,16.30
2023-05-14T21:16:17.206Z,16.20
2023-05-14T21:18:50.493Z,16.20
2023-05-14T21:21:23.724Z,16.10
2023-05-14T21:23:57.201Z,16.10
2023-05-14T21:26:36.777Z,15.90
2023-05-14T21:29:10.506Z,15.90
2023-05-14T21:31:44.142Z,16.00
2023-05-14T21:34:17.964Z,16.00
2023-05-14T21:36:51.329Z,15.90
2023-05-14T21:39:25.952Z,15.80
2023-05-14T21:41:59.137Z,15.70
2023-05-14T21:44:32.379Z,15.60
2023-05-14T21:47:06.335Z,15.60
2023-05-14T21:49:39.403Z,15.50
2023-05-14T21:52:13.307Z,15.60
2023-05-14T21:54:46.499Z,15.50
2023-05-14T21:57:20.379Z,15.50
2023-05-14T21:59:53.644Z,15.30
2023-05-14T22:02:27.079Z,15.20
2023-05-14T22:05:00.194Z,15.10
2023-05-14T22:07:34.027Z,15.10
2023-05-14T22:10:07.356Z,15.20
2023-05-14T22:12:40.618Z,15.10
2023-05-14T22:15:15.460Z,15.10
2023-05-14T22:17:48.758Z,15.00
2023-05-14T22:20:22.070Z,15.10
2023-05-14T22:22:55.526Z,14.80
2023-05-14T22:25:28.831Z,14.80
2023-05-14T22:28:02.158Z,14.80
2023-05-14T22:30:35.415Z,14.70
2023-05-14T22:33:08.778Z,14.80
2023-05-14T22:35:41.887Z,14.80
2023-05-14T22:38:15.089Z,14.70
2023-05-14T22:40:48.338Z,14.70
2023-05-14T22:43:21.531Z,14.60
2023-05-14T22:45:54.845Z,14.50
2023-05-14T22:48:28.170Z,14.60
2023-05-14T22:51:01.311Z,14.50
2023-05-14T22:53:34.518Z,14.50
2023-05-14T22:56:08.842Z,14.50
2023-05-14T22:58:42.084Z,14.50
2023-05-14T23:01:15.410Z,14.40
2023-05-14T23:03:48.686Z,14.40
2023-05-14T23:06:21.755Z,14.30
2023-05-14T23:08:55.003Z,14.30
2023-05-14T23:11:29.894Z,14.40
2023-05-14T23:14:03.197Z,14.40
2023-05-14T23:16:36.592Z,14.40
2023-05-14T23:19:09.973Z,14.40
2023-05-14T23:21:43.850Z,14.30
2023-05-14T23:24:17.083Z,14.40
2023-05-14T23:26:50.406Z,14.40
2023-05-14T23:29:23.733Z,14.40
2023-05-14T23:31:57.140Z,14.40
2023-05-14T23:34:30.353Z,14.30
2023-05-14T23:37:03.383Z,14.30
2023-05-14T23:39:36.734Z,14.30
2023-05-14T23:42:10.136Z,14.20
2023-05-14T23:44:43.477Z,14.20
2023-05-14T23:47:17.191Z,14.20
2023-05-14T23:49:50.485Z,14.10
2023-05-14T23:52:23.652Z,14.10
2023-05-14T23:54:56.945Z,14.00
2023-05-14T23:57:30.506Z,14.00
